LFMH/EBU METAR and TAF weather

Enter ICAO airport designator
Station Type Date Time Source
LFMH METAR 2021/03/02 13:30 UTC NOAA

LFMH 021330Z AUTO 17010KT CAVOK 18/00 Q1028


Station Type Date Time Source
LFMH Decoded METAR 2021/03/02 13:30 UTC NOAA

St-Etienne Boutheon, France (LFMH) 45-32N 004-18E 402M
Mar 02, 2021 - 08:30 AM EST / 2021.03.02 1330 UTC
Wind: from the S (170 degrees) at 12 MPH (10 KT):0
Visibility: greater than 7 mile(s):0
Temperature: 64 F (18 C)
Dew Point: 32 F (0 C)
Relative Humidity: 29%
Pressure (altimeter): 30.36 in. Hg (1028 hPa)
ob: LFMH 021330Z AUTO 17010KT CAVOK 18/00 Q1028
cycle: 13

Station Type Date Time Source
LFMH TAF 2021/03/02 12:21 UTC NOAA

TAF LFMH 021100Z 0212/0312 16009KT CAVOK

Example: see airport list